Time;durP1;ratioP1;P1;durP2;ratioP2;P2;SDS_P1;SDS_P2;PMS_P1;PMS_P2;Temp;Humidity;BMP_temperature;BMP_pressure;BME280_temperature;BME280_humidity;BME280_pressure;Samples;Min_cycle;Max_cycle;Signal;HPM_P1;HPM_P2
2024/01/10 00:00:22;;;;;;;42.63;21.43;;;-1.60;99.90;;;;;;5050809;28;20223;-67
2024/01/10 00:02:49;;;;;;;48.23;23.27;;;-1.60;99.90;;;;;;5049479;28;20216;-67
2024/01/10 00:05:16;;;;;;;43.47;22.10;;;-1.30;99.90;;;;;;5054237;28;20285;-67
2024/01/10 00:07:43;;;;;;;43.43;20.93;;;-1.40;99.90;;;;;;5061253;28;20339;-66
2024/01/10 00:10:11;;;;;;;42.97;22.83;;;-1.60;99.90;;;;;;5053631;28;20224;-67
2024/01/10 00:12:39;;;;;;;44.57;21.47;;;-1.70;99.90;;;;;;5055573;28;20197;-66
2024/01/10 00:15:07;;;;;;;43.90;23.40;;;-1.70;99.90;;;;;;5055153;28;20221;-67
2024/01/10 00:17:34;;;;;;;43.80;21.50;;;-1.60;99.90;;;;;;5051572;28;20680;-67
2024/01/10 00:20:00;;;;;;;43.07;21.80;;;-1.30;99.90;;;;;;5051044;28;20741;-66
2024/01/10 00:22:27;;;;;;;49.77;23.63;;;-1.40;99.90;;;;;;5049205;28;20727;-67
2024/01/10 00:24:54;;;;;;;40.77;21.17;;;-1.50;99.90;;;;;;5041959;28;20273;-66
2024/01/10 00:27:21;;;;;;;47.47;22.97;;;-1.30;99.90;;;;;;5031789;28;20262;-67
2024/01/10 00:29:51;;;;;;;36.67;19.67;;;-1.50;99.90;;;;;;5033619;28;20227;-67
2024/01/10 00:32:18;;;;;;;61.10;26.13;;;-1.10;99.90;;;;;;5031764;28;20205;-67
2024/01/10 00:34:45;;;;;;;40.83;22.80;;;-1.50;99.90;;;;;;5031788;28;20270;-67
2024/01/10 00:37:12;;;;;;;46.53;22.20;;;-1.50;99.90;;;;;;5044307;28;20205;-67
2024/01/10 00:39:39;;;;;;;48.00;22.93;;;-1.60;99.90;;;;;;5054732;28;20231;-67
2024/01/10 00:42:06;;;;;;;56.10;24.63;;;-1.40;99.90;;;;;;5054731;28;20198;-67
2024/01/10 00:44:33;;;;;;;53.97;23.27;;;-1.60;99.90;;;;;;5061506;28;20262;-67
2024/01/10 00:47:04;;;;;;;43.07;21.90;;;-1.60;99.90;;;;;;5055124;28;20202;-67
2024/01/10 00:49:31;;;;;;;47.13;22.73;;;-1.40;99.90;;;;;;5056331;28;20226;-67
2024/01/10 00:51:58;;;;;;;51.17;24.20;;;-1.60;99.90;;;;;;5053962;28;20206;-67
2024/01/10 00:54:25;;;;;;;53.83;22.57;;;-1.20;99.90;;;;;;5055392;28;20273;-67
2024/01/10 00:56:52;;;;;;;42.70;21.67;;;-1.10;99.90;;;;;;5055244;28;20307;-67
2024/01/10 00:59:19;;;;;;;44.93;23.50;;;-1.40;99.90;;;;;;5038307;28;20232;-67
2024/01/10 01:01:46;;;;;;;46.37;22.57;;;-1.20;99.90;;;;;;5052291;28;20207;-67
2024/01/10 01:04:14;;;;;;;45.20;22.57;;;-1.60;99.90;;;;;;5054868;28;20241;-67
2024/01/10 01:06:41;;;;;;;44.33;22.63;;;-1.50;99.90;;;;;;5049226;28;20196;-66
2024/01/10 01:09:08;;;;;;;41.77;21.60;;;-1.30;99.90;;;;;;5067091;28;20265;-67
2024/01/10 01:11:35;;;;;;;45.53;23.13;;;-1.60;99.90;;;;;;5054110;28;20250;-67
2024/01/10 01:14:03;;;;;;;46.87;22.50;;;-1.50;99.90;;;;;;5054505;28;20756;-66
2024/01/10 01:16:30;;;;;;;40.77;20.47;;;-1.20;99.90;;;;;;5054723;28;20247;-66
2024/01/10 01:18:56;;;;;;;42.23;22.07;;;-1.60;99.90;;;;;;5054566;28;20228;-66
2024/01/10 01:21:25;;;;;;;46.10;22.33;;;-1.60;99.90;;;;;;5053353;28;20200;-67
2024/01/10 01:23:52;;;;;;;44.90;22.60;;;-1.40;99.90;;;;;;5054141;28;20250;-66
2024/01/10 01:26:19;;;;;;;43.57;21.73;;;-1.30;99.90;;;;;;5055510;28;20208;-67
2024/01/10 01:28:46;;;;;;;44.30;20.43;;;-1.50;99.90;;;;;;5053078;28;20204;-66
2024/01/10 01:31:13;;;;;;;54.60;24.77;;;-1.60;99.90;;;;;;5053536;28;20198;-66
2024/01/10 01:33:40;;;;;;;51.57;23.80;;;-1.80;99.90;;;;;;5054304;28;20198;-66
2024/01/10 01:36:07;;;;;;;47.33;22.10;;;-1.60;99.90;;;;;;5051988;28;20200;-66
2024/01/10 01:38:36;;;;;;;39.60;21.33;;;-1.80;99.90;;;;;;5058029;28;20735;-66
2024/01/10 01:41:05;;;;;;;42.67;21.20;;;-1.40;99.90;;;;;;5057783;28;20206;-66
2024/01/10 01:43:32;;;;;;;46.80;23.30;;;-1.80;99.90;;;;;;5058167;28;20738;-66
2024/01/10 01:46:00;;;;;;;49.70;24.40;;;-1.80;99.90;;;;;;5053244;28;20204;-66
2024/01/10 01:48:27;;;;;;;46.27;23.23;;;-1.70;99.90;;;;;;5046822;28;20246;-67
2024/01/10 01:50:57;;;;;;;50.37;23.77;;;-1.70;99.90;;;;;;5056893;28;20223;-66
2024/01/10 01:53:25;;;;;;;49.63;24.67;;;-1.60;99.90;;;;;;5053885;28;20617;-66
2024/01/10 01:55:54;;;;;;;49.43;24.17;;;-1.20;99.90;;;;;;5057415;28;20634;-66
2024/01/10 01:58:24;;;;;;;52.53;23.47;;;-1.40;99.90;;;;;;5058510;28;20278;-66
2024/01/10 02:00:52;;;;;;;44.40;23.87;;;-1.50;99.90;;;;;;5055033;28;20231;-66
2024/01/10 02:03:19;;;;;;;52.00;25.20;;;-1.40;99.90;;;;;;5051506;28;20214;-66
2024/01/10 02:05:47;;;;;;;56.73;24.67;;;-1.40;99.90;;;;;;5053014;28;20263;-67
2024/01/10 02:08:14;;;;;;;49.27;23.03;;;-1.50;99.90;;;;;;5044326;28;20277;-66
2024/01/10 02:10:41;;;;;;;48.03;23.90;;;-1.30;99.90;;;;;;5052476;28;20367;-67
2024/01/10 02:13:11;;;;;;;44.13;21.83;;;-1.70;99.90;;;;;;5055701;28;20203;-67
2024/01/10 02:15:39;;;;;;;47.07;23.10;;;-1.60;99.90;;;;;;5059371;28;20224;-66
2024/01/10 02:18:06;;;;;;;41.40;21.57;;;-1.60;99.90;;;;;;5053860;28;20209;-66
2024/01/10 02:20:33;;;;;;;50.63;22.83;;;-1.40;99.90;;;;;;5054755;28;20302;-67
2024/01/10 02:23:00;;;;;;;45.03;20.40;;;-1.50;99.90;;;;;;5048490;28;20203;-67
2024/01/10 02:25:29;;;;;;;48.30;24.27;;;-1.30;99.90;;;;;;5057360;28;20203;-66
2024/01/10 02:27:56;;;;;;;47.73;21.97;;;-1.70;99.90;;;;;;5061170;28;20206;-66
2024/01/10 02:30:23;;;;;;;54.37;25.90;;;-1.40;99.90;;;;;;5058706;28;20270;-66
2024/01/10 02:32:50;;;;;;;46.53;22.93;;;-1.40;99.90;;;;;;5050249;28;20290;-66
2024/01/10 02:35:17;;;;;;;47.70;23.63;;;-1.70;99.90;;;;;;5053439;28;20266;-67
2024/01/10 02:37:44;;;;;;;49.10;25.03;;;-1.60;99.90;;;;;;5054098;28;20262;-67
2024/01/10 02:40:12;;;;;;;51.67;23.80;;;-1.60;99.90;;;;;;5057823;28;20218;-67
2024/01/10 02:42:40;;;;;;;48.97;25.03;;;-1.40;99.90;;;;;;5051943;28;20252;-67
2024/01/10 02:45:08;;;;;;;50.43;22.80;;;-1.50;99.90;;;;;;5043181;28;20207;-67
2024/01/10 02:47:36;;;;;;;46.00;23.47;;;-1.50;99.90;;;;;;5081067;22;20253;-60
2024/01/10 02:50:04;;;;;;;47.70;23.73;;;-1.50;99.90;;;;;;5070390;28;20214;-60
2024/01/10 02:52:31;;;;;;;47.90;23.60;;;-1.60;99.90;;;;;;5071814;28;20269;-60
2024/01/10 02:54:58;;;;;;;49.17;23.23;;;-1.30;99.90;;;;;;5067573;28;20228;-60
2024/01/10 02:57:25;;;;;;;54.63;23.90;;;-1.60;99.90;;;;;;5068893;28;20230;-60
2024/01/10 02:59:53;;;;;;;50.37;23.63;;;-1.20;99.90;;;;;;5063628;28;20227;-60
2024/01/10 03:02:20;;;;;;;48.20;23.97;;;-1.30;99.90;;;;;;5071617;28;20312;-60
2024/01/10 03:04:48;;;;;;;45.50;23.27;;;-1.60;99.90;;;;;;5071902;28;20203;-60
2024/01/10 03:07:15;;;;;;;52.07;24.03;;;-1.60;99.90;;;;;;5079922;28;20231;-59
2024/01/10 03:09:42;;;;;;;52.10;25.03;;;-1.60;99.90;;;;;;5091360;28;20189;-61
2024/01/10 03:12:11;;;;;;;47.23;21.53;;;-1.50;99.90;;;;;;5071718;28;20578;-61
2024/01/10 03:14:38;;;;;;;51.83;25.83;;;-1.20;99.90;;;;;;5071860;28;20269;-61
2024/01/10 03:17:09;;;;;;;49.73;23.73;;;-1.20;99.90;;;;;;5071568;28;20650;-61
2024/01/10 03:19:42;;;;;;;48.63;22.70;;;-1.40;99.90;;;;;;5062444;28;20254;-61
2024/01/10 03:22:10;;;;;;;48.37;21.90;;;-1.60;99.90;;;;;;5066833;28;21042;-61
2024/01/10 03:24:37;;;;;;;52.60;23.83;;;-1.50;99.90;;;;;;5071752;28;20205;-61
2024/01/10 03:27:05;;;;;;;44.87;22.53;;;-1.50;99.90;;;;;;5067887;28;20271;-61
2024/01/10 03:29:32;;;;;;;46.53;22.83;;;-1.40;99.90;;;;;;5070389;28;20203;-61
2024/01/10 03:31:59;;;;;;;44.47;22.73;;;-1.20;99.90;;;;;;5070808;28;20211;-61
2024/01/10 03:34:27;;;;;;;48.80;23.80;;;-1.50;99.90;;;;;;5070399;28;20257;-61
2024/01/10 03:36:54;;;;;;;48.87;23.17;;;-1.20;99.90;;;;;;5070178;28;20212;-61
2024/01/10 03:39:21;;;;;;;49.37;23.07;;;-1.50;99.90;;;;;;5071304;28;20269;-61
2024/01/10 03:41:49;;;;;;;47.47;23.77;;;-1.10;99.90;;;;;;5069606;28;20571;-60
2024/01/10 03:44:16;;;;;;;47.93;23.40;;;-1.40;99.90;;;;;;5071230;28;20209;-61
2024/01/10 03:46:43;;;;;;;45.50;22.97;;;-1.50;99.90;;;;;;5071229;28;20208;-61
2024/01/10 03:49:10;;;;;;;46.83;23.20;;;-1.30;99.90;;;;;;5069837;28;20255;-60
2024/01/10 03:51:40;;;;;;;49.17;24.40;;;-1.50;99.90;;;;;;5062196;28;20202;-61
2024/01/10 03:54:07;;;;;;;46.77;22.77;;;-1.50;99.90;;;;;;5070930;28;20204;-61
2024/01/10 03:56:34;;;;;;;46.50;21.80;;;-1.40;99.90;;;;;;5069431;28;20239;-61
2024/01/10 03:59:02;;;;;;;52.60;23.63;;;-1.40;99.90;;;;;;5062452;28;20214;-61
2024/01/10 04:01:29;;;;;;;50.97;24.73;;;-1.30;99.90;;;;;;5069108;28;20290;-61
2024/01/10 04:03:56;;;;;;;52.00;23.63;;;-1.40;99.90;;;;;;5061893;28;20254;-61
2024/01/10 04:06:23;;;;;;;48.80;23.97;;;-1.10;99.90;;;;;;5071035;28;20244;-61
2024/01/10 04:08:51;;;;;;;42.23;21.63;;;-1.10;99.90;;;;;;5071442;28;20221;-61
2024/01/10 04:11:18;;;;;;;46.30;23.53;;;-1.40;99.90;;;;;;5089588;28;20540;-61
2024/01/10 04:13:45;;;;;;;46.47;23.73;;;-1.30;99.90;;;;;;5078039;28;20208;-60
2024/01/10 04:16:13;;;;;;;45.13;23.90;;;-0.90;99.90;;;;;;5058826;28;20233;-61
2024/01/10 04:18:40;;;;;;;51.27;24.27;;;-1.20;99.90;;;;;;5065366;28;20224;-61
2024/01/10 04:21:08;;;;;;;51.43;26.00;;;-0.90;99.90;;;;;;5069222;28;20201;-61
2024/01/10 04:23:35;;;;;;;46.40;23.27;;;-1.20;99.90;;;;;;5071197;28;20622;-61
2024/01/10 04:26:03;;;;;;;50.60;25.20;;;-1.10;99.90;;;;;;5074316;28;20604;-61
2024/01/10 04:28:31;;;;;;;45.37;24.53;;;-1.00;99.90;;;;;;5089164;28;20223;-62
2024/01/10 04:30:58;;;;;;;48.57;23.20;;;-1.10;99.90;;;;;;5068523;28;20206;-61
2024/01/10 04:33:24;;;;;;;56.17;25.47;;;-1.10;99.90;;;;;;5071058;28;20202;-62
2024/01/10 04:35:51;;;;;;;52.47;24.90;;;-0.90;99.90;;;;;;5069543;28;20218;-61
2024/01/10 04:38:18;;;;;;;55.77;24.73;;;-1.30;99.90;;;;;;5063080;28;20215;-61
2024/01/10 04:40:45;;;;;;;49.60;24.73;;;-1.20;99.90;;;;;;5070033;28;20256;-61
2024/01/10 04:43:14;;;;;;;55.90;26.47;;;-1.10;99.90;;;;;;5071094;28;20200;-61
2024/01/10 04:45:41;;;;;;;55.80;26.67;;;-1.00;99.90;;;;;;5068731;28;20278;-60
2024/01/10 04:48:08;;;;;;;49.73;25.23;;;-1.10;99.90;;;;;;5070250;28;20731;-61
2024/01/10 04:50:35;;;;;;;54.70;26.00;;;-1.00;99.90;;;;;;5070151;28;20271;-61
2024/01/10 04:53:02;;;;;;;47.00;23.83;;;-1.00;99.90;;;;;;5086820;28;20215;-64
2024/01/10 04:55:29;;;;;;;52.60;25.50;;;-1.00;99.90;;;;;;5069594;28;20222;-61
2024/01/10 04:57:56;;;;;;;53.30;26.10;;;-1.10;99.90;;;;;;5052314;28;20223;-61
2024/01/10 05:00:25;;;;;;;54.37;25.07;;;-0.90;99.90;;;;;;5077080;28;20195;-61
2024/01/10 05:02:52;;;;;;;45.93;24.10;;;-0.90;99.90;;;;;;5069850;28;20198;-61
2024/01/10 05:05:23;;;;;;;51.23;24.80;;;-1.20;99.90;;;;;;5071099;28;20204;-61
2024/01/10 05:07:50;;;;;;;48.10;23.30;;;-1.20;99.90;;;;;;5070956;28;20261;-61
2024/01/10 05:10:17;;;;;;;49.83;24.47;;;-1.20;99.90;;;;;;5074996;28;20308;-60
2024/01/10 05:12:44;;;;;;;55.33;24.17;;;-1.30;99.90;;;;;;5062156;28;20203;-61
2024/01/10 05:15:11;;;;;;;47.77;24.63;;;-1.00;99.90;;;;;;5070757;28;20234;-61
2024/01/10 05:17:40;;;;;;;52.13;25.63;;;-1.30;99.90;;;;;;5070094;28;20224;-60
2024/01/10 05:20:08;;;;;;;52.60;25.80;;;-1.30;99.90;;;;;;5062358;28;20206;-61
2024/01/10 05:22:36;;;;;;;46.30;24.50;;;-0.90;99.90;;;;;;5070458;28;20212;-61
2024/01/10 05:25:04;;;;;;;46.03;24.13;;;-1.30;99.90;;;;;;5074232;28;20201;-60
2024/01/10 05:27:31;;;;;;;48.23;25.50;;;-1.30;99.90;;;;;;5074326;28;20306;-61
2024/01/10 05:29:59;;;;;;;50.83;23.73;;;-1.10;99.90;;;;;;5073454;28;20508;-61
2024/01/10 05:32:26;;;;;;;49.10;24.60;;;-1.30;99.90;;;;;;5073824;28;21075;-61
2024/01/10 05:34:54;;;;;;;51.03;24.37;;;-1.30;99.90;;;;;;5070223;28;20410;-61
2024/01/10 05:37:22;;;;;;;52.07;24.07;;;-1.00;99.90;;;;;;5074127;28;20703;-61
2024/01/10 05:39:49;;;;;;;50.90;24.97;;;-1.20;99.90;;;;;;5073681;28;20754;-61
2024/01/10 05:42:16;;;;;;;52.20;25.93;;;-1.30;99.90;;;;;;5071668;28;20253;-61
2024/01/10 05:44:43;;;;;;;50.13;23.23;;;-1.30;99.90;;;;;;5073900;28;20658;-61
2024/01/10 05:47:10;;;;;;;48.13;23.87;;;-1.30;99.90;;;;;;5073820;28;20320;-61
2024/01/10 05:49:37;;;;;;;50.33;24.60;;;-0.90;99.90;;;;;;5073413;28;20631;-60
2024/01/10 05:52:09;;;;;;;50.07;25.30;;;-0.90;99.90;;;;;;5073304;28;20260;-60
2024/01/10 05:54:36;;;;;;;52.93;23.33;;;-1.00;99.90;;;;;;5074722;28;20223;-61
2024/01/10 05:57:05;;;;;;;50.80;24.43;;;-1.10;99.90;;;;;;5074500;28;20224;-61
2024/01/10 05:59:32;;;;;;;51.07;26.07;;;-1.20;99.90;;;;;;5074311;28;20206;-61
2024/01/10 06:01:59;;;;;;;52.33;24.83;;;-1.20;99.90;;;;;;5073440;28;20258;-61
2024/01/10 06:04:27;;;;;;;56.57;26.10;;;-0.80;99.90;;;;;;5074412;28;20288;-61
2024/01/10 06:06:54;;;;;;;48.40;23.67;;;-1.30;99.90;;;;;;5072775;28;20294;-61
2024/01/10 06:09:23;;;;;;;48.73;26.20;;;-0.90;99.90;;;;;;5067312;28;20212;-61
2024/01/10 06:11:50;;;;;;;44.00;24.53;;;-1.10;99.90;;;;;;5080042;28;20200;-61
2024/01/10 06:14:17;;;;;;;47.90;24.83;;;-1.00;99.90;;;;;;5070216;28;20227;-61
2024/01/10 06:16:44;;;;;;;53.40;25.63;;;-0.90;99.90;;;;;;5074160;28;20674;-61
2024/01/10 06:19:12;;;;;;;46.47;24.40;;;-1.20;99.90;;;;;;5071629;28;20206;-61
2024/01/10 06:21:39;;;;;;;52.60;27.00;;;-1.20;99.90;;;;;;5073506;28;20260;-61
2024/01/10 06:24:06;;;;;;;48.33;24.53;;;-0.90;99.90;;;;;;5073330;28;20265;-61
2024/01/10 06:26:34;;;;;;;51.03;26.17;;;-1.30;99.90;;;;;;5072291;28;20221;-61
2024/01/10 06:29:01;;;;;;;60.97;25.40;;;-1.30;99.90;;;;;;5073781;28;20282;-61
2024/01/10 06:31:28;;;;;;;49.90;24.93;;;-1.10;99.90;;;;;;5072409;28;20195;-61
2024/01/10 06:33:58;;;;;;;50.33;24.83;;;-1.00;99.90;;;;;;5072551;28;20211;-62
2024/01/10 06:36:26;;;;;;;48.70;25.23;;;-1.30;99.90;;;;;;5073256;28;20230;-62
2024/01/10 06:38:53;;;;;;;46.53;25.23;;;-1.20;99.90;;;;;;5083138;28;20233;-61
2024/01/10 06:41:24;;;;;;;47.70;23.43;;;-1.00;99.90;;;;;;5079548;28;20225;-62
2024/01/10 06:43:52;;;;;;;48.77;24.27;;;-1.30;99.90;;;;;;5077223;28;20630;-61
2024/01/10 06:46:19;;;;;;;51.70;24.93;;;-1.40;99.90;;;;;;5069220;28;20193;-61
2024/01/10 06:48:47;;;;;;;55.53;25.97;;;-1.40;99.90;;;;;;5075920;28;20610;-61
2024/01/10 06:51:14;;;;;;;50.73;24.60;;;-1.20;99.90;;;;;;5072925;28;20198;-61
2024/01/10 06:53:41;;;;;;;53.80;26.47;;;-1.60;99.90;;;;;;5072647;28;20591;-61
2024/01/10 06:56:10;;;;;;;50.07;24.33;;;-1.40;99.90;;;;;;5072489;28;20224;-61
2024/01/10 06:58:37;;;;;;;51.33;24.33;;;-1.30;99.90;;;;;;5065820;28;20231;-61
2024/01/10 07:01:06;;;;;;;45.90;24.67;;;-1.50;99.90;;;;;;5070858;28;20353;-61
2024/01/10 07:03:34;;;;;;;52.87;26.37;;;-1.70;99.90;;;;;;5072171;28;20201;-61
2024/01/10 07:06:01;;;;;;;52.30;26.50;;;-1.50;99.90;;;;;;5070999;28;20200;-61
2024/01/10 07:08:30;;;;;;;56.57;25.93;;;-1.60;99.90;;;;;;5072326;28;20222;-61
2024/01/10 07:10:57;;;;;;;48.60;25.23;;;-1.40;99.90;;;;;;5071329;28;20288;-61
2024/01/10 07:13:24;;;;;;;47.97;23.80;;;-1.70;99.90;;;;;;5066582;28;20268;-61
2024/01/10 07:15:52;;;;;;;48.03;24.03;;;-1.80;99.90;;;;;;5071236;28;20228;-61
2024/01/10 07:18:20;;;;;;;51.53;24.80;;;-1.50;99.90;;;;;;5070119;28;20220;-61
2024/01/10 07:20:47;;;;;;;54.80;26.73;;;-1.60;99.90;;;;;;5071645;28;20225;-61
2024/01/10 07:23:14;;;;;;;54.13;26.63;;;-1.40;99.90;;;;;;5076469;28;20628;-62
2024/01/10 07:25:41;;;;;;;52.27;26.47;;;-1.40;99.90;;;;;;5073152;28;20199;-61
2024/01/10 07:28:08;;;;;;;50.70;24.83;;;-1.60;99.90;;;;;;5071365;28;20223;-61
2024/01/10 07:30:35;;;;;;;47.27;24.00;;;-1.60;99.90;;;;;;5071213;28;20248;-61
2024/01/10 07:33:02;;;;;;;51.67;25.23;;;-1.80;99.90;;;;;;5071687;28;20248;-61
2024/01/10 07:35:30;;;;;;;48.23;23.93;;;-1.70;99.90;;;;;;5071841;28;20196;-61
2024/01/10 07:37:57;;;;;;;52.60;25.80;;;-1.70;99.90;;;;;;5075390;28;20221;-61
2024/01/10 07:40:24;;;;;;;51.00;24.17;;;-1.70;99.90;;;;;;5075185;28;20203;-61
2024/01/10 07:42:51;;;;;;;55.30;25.77;;;-1.60;99.90;;;;;;5071214;28;20205;-61
2024/01/10 07:45:18;;;;;;;54.13;26.67;;;-1.70;99.90;;;;;;5061318;28;20282;-61
2024/01/10 07:47:46;;;;;;;52.97;26.77;;;-1.40;99.90;;;;;;5069226;28;20723;-61
2024/01/10 07:50:14;;;;;;;46.83;24.73;;;-1.20;99.90;;;;;;5070166;28;20797;-61
2024/01/10 07:52:45;;;;;;;47.03;26.30;;;-1.40;99.90;;;;;;5070925;28;20207;-61
2024/01/10 07:55:13;;;;;;;48.90;24.13;;;-1.40;99.90;;;;;;5071227;28;20197;-62
2024/01/10 07:57:42;;;;;;;56.87;27.67;;;-1.40;99.90;;;;;;5071718;28;20265;-62
2024/01/10 08:00:10;;;;;;;56.70;27.77;;;-1.30;99.90;;;;;;5080344;28;20210;-64
2024/01/10 08:02:37;;;;;;;54.03;25.43;;;-1.20;99.90;;;;;;5074583;28;20560;-61
2024/01/10 08:05:08;;;;;;;54.93;27.70;;;-1.20;99.90;;;;;;5070775;28;20202;-61
2024/01/10 08:07:36;;;;;;;54.73;26.63;;;-1.40;99.90;;;;;;5070633;28;20297;-61
2024/01/10 08:10:05;;;;;;;47.70;24.40;;;-1.30;99.90;;;;;;5070160;28;20291;-61
2024/01/10 08:12:32;;;;;;;52.03;25.67;;;-0.90;99.90;;;;;;5070643;28;20666;-62
2024/01/10 08:14:59;;;;;;;51.07;26.80;;;-1.00;99.90;;;;;;5061711;28;20249;-62
2024/01/10 08:17:26;;;;;;;52.50;26.73;;;-1.00;99.90;;;;;;5068699;28;20223;-61
2024/01/10 08:19:53;;;;;;;55.80;26.20;;;-0.80;99.90;;;;;;5069928;28;20230;-62
2024/01/10 08:22:22;;;;;;;52.13;27.50;;;-0.30;99.90;;;;;;5061078;28;20310;-62
2024/01/10 08:24:49;;;;;;;50.83;27.63;;;-0.20;99.90;;;;;;5083087;28;20218;-62
2024/01/10 08:27:17;;;;;;;51.30;26.57;;;-0.50;99.90;;;;;;5087318;28;20289;-62
2024/01/10 08:29:44;;;;;;;49.27;24.90;;;-0.10;99.90;;;;;;5069417;28;20204;-62
2024/01/10 08:32:12;;;;;;;61.27;27.40;;;0.20;99.90;;;;;;5070274;28;20198;-62
2024/01/10 08:34:38;;;;;;;61.93;28.40;;;0.50;99.90;;;;;;5070877;28;20271;-61
2024/01/10 08:37:08;;;;;;;53.77;27.90;;;0.90;99.90;;;;;;5070298;28;20651;-61
2024/01/10 08:39:36;;;;;;;52.05;29.23;;;1.20;99.90;;;;;;5066913;28;20956;-64
2024/01/10 08:42:03;;;;;;;57.57;27.90;;;1.30;99.90;;;;;;5067851;28;20290;-64
2024/01/10 08:44:34;;;;;;;55.93;29.33;;;1.30;99.90;;;;;;5062378;28;20222;-64
2024/01/10 08:47:01;;;;;;;56.20;28.13;;;1.20;99.90;;;;;;5068767;28;22003;-65
2024/01/10 08:49:28;;;;;;;50.87;27.33;;;1.10;99.90;;;;;;5069949;28;20214;-65
2024/01/10 08:51:55;;;;;;;50.00;27.23;;;1.10;99.90;;;;;;5074023;28;20346;-64
2024/01/10 08:54:22;;;;;;;50.77;26.57;;;1.10;99.90;;;;;;5071709;28;20199;-64
2024/01/10 08:56:49;;;;;;;52.00;27.20;;;1.10;99.90;;;;;;5080374;28;20223;-64
2024/01/10 08:59:16;;;;;;;62.50;27.77;;;1.00;99.90;;;;;;5073867;28;20219;-64
2024/01/10 09:01:48;;;;;;;51.37;28.23;;;0.90;99.90;;;;;;5083424;28;20207;-64
2024/01/10 09:04:15;;;;;;;55.27;28.20;;;0.80;99.90;;;;;;5076712;28;20555;-64
2024/01/10 09:06:42;;;;;;;55.77;26.87;;;0.50;99.90;;;;;;5080515;28;20235;-64
2024/01/10 09:09:09;;;;;;;55.77;26.17;;;0.60;99.90;;;;;;5079732;28;20206;-64
2024/01/10 09:11:36;;;;;;;62.37;25.87;;;0.60;99.90;;;;;;5077616;28;20246;-64
2024/01/10 09:14:03;;;;;;;53.43;28.03;;;0.60;99.90;;;;;;5074576;28;20210;-65
2024/01/10 09:16:30;;;;;;;61.93;28.80;;;0.80;99.90;;;;;;5082651;28;20279;-64
2024/01/10 09:18:59;;;;;;;55.87;25.63;;;0.70;99.90;;;;;;5073839;28;20275;-64
2024/01/10 09:21:26;;;;;;;52.10;27.70;;;0.60;99.90;;;;;;5070842;28;20202;-64
2024/01/10 09:23:55;;;;;;;54.08;29.83;;;0.70;99.90;;;;;;5072458;28;20442;-67
2024/01/10 09:26:22;;;;;;;58.50;27.37;;;0.70;99.90;;;;;;5066269;28;20194;-69
2024/01/10 09:28:49;;;;;;;47.63;24.47;;;0.80;99.90;;;;;;5073916;28;20213;-63
2024/01/10 09:31:16;;;;;;;56.30;27.53;;;0.70;99.90;;;;;;5072693;28;20673;-68
2024/01/10 09:33:44;;;;;;;61.73;28.93;;;0.80;99.90;;;;;;5073608;28;20668;-68
2024/01/10 09:36:12;;;;;;;45.87;22.67;;;0.70;99.90;;;;;;5072266;28;20202;-69
2024/01/10 09:38:39;;;;;;;54.17;25.27;;;0.60;99.90;;;;;;5072962;28;20227;-67
2024/01/10 09:41:06;;;;;;;53.50;25.83;;;0.80;99.90;;;;;;5073207;28;20616;-72
2024/01/10 09:43:34;;;;;;;49.40;25.83;;;0.70;99.90;;;;;;5081788;28;20229;-72
2024/01/10 09:46:03;;;;;;;52.07;24.33;;;0.90;99.90;;;;;;5090070;28;20257;-71
2024/01/10 09:48:31;;;;;;;51.93;24.73;;;0.90;99.90;;;;;;5073288;28;20280;-74
2024/01/10 09:50:58;;;;;;;51.73;26.63;;;0.80;99.90;;;;;;5072176;28;20666;-69
2024/01/10 09:53:29;;;;;;;52.10;23.77;;;0.90;99.90;;;;;;5073505;28;20199;-70
2024/01/10 09:55:57;;;;;;;51.07;24.47;;;0.90;99.90;;;;;;5073750;28;20206;-68
2024/01/10 09:58:25;;;;;;;60.50;27.93;;;0.80;99.90;;;;;;5073496;28;20303;-66
2024/01/10 10:00:52;;;;;;;46.60;23.10;;;0.70;99.90;;;;;;5073073;28;20204;-67
2024/01/10 10:03:20;;;;;;;54.67;25.20;;;0.70;99.90;;;;;;5074441;28;20201;-67
2024/01/10 10:05:47;;;;;;;53.40;26.23;;;0.70;99.90;;;;;;5072354;28;20263;-68
2024/01/10 10:08:19;;;;;;;54.90;25.00;;;0.80;99.90;;;;;;5072524;28;20222;-69
2024/01/10 10:10:49;;;;;;;60.80;25.77;;;0.70;99.90;;;;;;5089221;28;20202;-68
2024/01/10 10:13:26;;;;;;;51.77;25.93;;;0.90;99.90;;;;;;5084285;28;20613;-69
2024/01/10 10:15:59;;;;;;;54.47;26.87;;;1.00;99.90;;;;;;5085029;22;20318;-74
2024/01/10 10:18:27;;;;;;;51.97;25.47;;;1.00;99.90;;;;;;5054268;28;20306;-72
2024/01/10 10:21:09;;;;;;;51.90;25.37;;;1.10;99.90;;;;;;5053041;28;20202;-68
2024/01/10 10:23:36;;;;;;;47.47;25.23;;;1.00;99.90;;;;;;5050642;28;20260;-70
2024/01/10 10:26:19;;;;;;;54.63;25.60;;;1.30;99.90;;;;;;5054083;28;20226;-71
2024/01/10 10:28:46;;;;;;;48.17;23.03;;;1.40;99.90;;;;;;5053544;28;20197;-69
2024/01/10 10:31:13;;;;;;;56.07;24.67;;;1.50;99.90;;;;;;5052550;28;20208;-67
2024/01/10 10:33:40;;;;;;;53.97;24.63;;;1.70;99.90;;;;;;5053431;28;20203;-63
2024/01/10 10:36:08;;;;;;;43.77;22.93;;;1.50;99.90;;;;;;5053303;28;20277;-64
2024/01/10 10:38:36;;;;;;;50.07;24.87;;;1.40;99.90;;;;;;5052939;28;20320;-64
2024/01/10 10:41:07;;;;;;;55.33;25.57;;;1.50;99.90;;;;;;5052667;28;20206;-71
2024/01/10 10:43:37;;;;;;;55.77;26.53;;;1.70;99.90;;;;;;5053232;28;20204;-70
2024/01/10 10:46:05;;;;;;;53.03;25.73;;;1.60;99.90;;;;;;5053015;28;20226;-69
2024/01/10 10:48:35;;;;;;;57.53;26.97;;;1.70;99.90;;;;;;5052354;28;20227;-69
2024/01/10 10:51:07;;;;;;;46.93;25.40;;;1.60;99.90;;;;;;5052433;28;20200;-70
2024/01/10 10:53:35;;;;;;;47.57;24.90;;;;;;;;;;5052326;28;20205;-71
2024/01/10 10:56:05;;;;;;;54.23;26.67;;;1.40;99.90;;;;;;5052547;28;20247;-69
2024/01/10 10:58:37;;;;;;;49.27;26.17;;;1.50;99.90;;;;;;5052789;28;20331;-69
2024/01/10 11:01:08;;;;;;;53.10;24.97;;;1.40;99.90;;;;;;5056930;28;20230;-71
2024/01/10 11:03:37;;;;;;;57.15;27.38;;;1.30;99.90;;;;;;5050224;28;20560;-64
2024/01/10 11:06:05;;;;;;;50.73;28.07;;;1.30;99.90;;;;;;5050641;28;20314;-64
2024/01/10 11:08:36;;;;;;;51.27;24.70;;;1.40;99.90;;;;;;5052147;28;20268;-64
2024/01/10 11:11:06;;;;;;;55.40;26.20;;;1.70;99.90;;;;;;5055829;28;20216;-63
2024/01/10 11:13:44;;;;;;;53.60;26.33;;;;;;;;;;5049692;28;20295;-64
2024/01/10 11:16:27;;;;;;;57.13;26.93;;;;;;;;;;5049330;28;20236;-63
2024/01/10 11:19:14;;;;;;;45.57;23.93;;;1.80;99.90;;;;;;5048195;28;20695;-65
2024/01/10 11:21:57;;;;;;;52.13;24.97;;;2.00;99.90;;;;;;5048611;28;20580;-64
2024/01/10 11:24:24;;;;;;;55.50;28.33;;;;;;;;;;5047380;28;20195;-64
2024/01/10 11:26:51;;;;;;;51.90;26.53;;;2.40;99.90;;;;;;5051833;28;20229;-65
2024/01/10 11:29:20;;;;;;;50.90;27.10;;;2.30;99.90;;;;;;5046247;28;20203;-64
2024/01/10 11:31:52;;;;;;;54.17;27.70;;;2.20;99.90;;;;;;5043210;28;20575;-65
2024/01/10 11:34:26;;;;;;;54.57;27.93;;;2.10;99.90;;;;;;5051123;28;20746;-65
2024/01/10 11:37:11;;;;;;;57.23;27.00;;;2.40;99.90;;;;;;5051519;28;20225;-65
2024/01/10 11:39:41;;;;;;;54.13;24.50;;;2.40;99.90;;;;;;5051207;28;20210;-65
2024/01/10 11:42:10;;;;;;;62.13;29.80;;;2.50;99.90;;;;;;5051207;28;20264;-65
2024/01/10 11:44:49;;;;;;;61.60;29.03;;;2.20;99.90;;;;;;5050824;28;20756;-65
2024/01/10 11:47:18;;;;;;;59.73;29.57;;;2.00;99.90;;;;;;5051428;28;20264;-65
2024/01/10 11:49:55;;;;;;;56.40;27.77;;;2.30;99.90;;;;;;5050314;28;20257;-65
2024/01/10 11:52:23;;;;;;;55.50;25.03;;;;;;;;;;5051546;28;20626;-65
2024/01/10 11:54:50;;;;;;;54.83;28.23;;;;;;;;;;5052035;28;20199;-65
2024/01/10 11:57:21;;;;;;;49.00;27.17;;;;;;;;;;5051993;28;20231;-65
2024/01/10 11:59:52;;;;;;;50.70;26.60;;;1.80;99.90;;;;;;5046670;28;20294;-64
2024/01/10 12:02:20;;;;;;;54.80;26.87;;;2.00;99.90;;;;;;5051541;28;20729;-65
2024/01/10 12:04:47;;;;;;;53.40;26.20;;;2.00;99.90;;;;;;5051717;28;20199;-64
2024/01/10 12:07:15;;;;;;;51.03;26.30;;;2.30;99.90;;;;;;5051607;28;20198;-64
2024/01/10 12:09:43;;;;;;;52.47;26.23;;;;;;;;;;5050823;28;20196;-63
2024/01/10 12:12:11;;;;;;;49.63;26.23;;;;;;;;;;5051302;28;20205;-69
2024/01/10 12:14:38;;;;;;;62.37;27.67;;;;;;;;;;5051592;28;20294;-69
2024/01/10 12:17:07;;;;;;;57.13;27.10;;;2.10;99.90;;;;;;5050443;28;20288;-72
2024/01/10 12:19:35;;;;;;;57.78;30.27;;;2.20;99.90;;;;;;5050887;28;20500;-64
2024/01/10 12:22:06;;;;;;;55.40;27.87;;;2.00;99.90;;;;;;5050364;28;20232;-76
2024/01/10 12:24:33;;;;;;;66.47;27.30;;;2.10;99.90;;;;;;5052894;28;20229;-75
2024/01/10 12:27:00;;;;;;;60.83;28.13;;;2.20;99.90;;;;;;5051337;28;20223;-69
2024/01/10 12:29:27;;;;;;;51.67;25.00;;;2.40;99.90;;;;;;5049415;28;20199;-65
2024/01/10 12:31:54;;;;;;;58.60;27.20;;;2.50;99.90;;;;;;5050364;28;20203;-71
2024/01/10 12:34:23;;;;;;;57.27;27.07;;;2.30;99.90;;;;;;5044125;28;20215;-71
2024/01/10 12:36:50;;;;;;;53.60;27.73;;;2.30;99.90;;;;;;5051578;28;20227;-72